createdAt,value
2022-11-26T00:00:23.000Z,6.222222222222224
2022-11-26T00:00:53.000Z,6.222222222222224
2022-11-26T00:01:28.000Z,6.222222222222224
2022-11-26T00:01:58.000Z,6.111111111111111
2022-11-26T00:02:28.000Z,6.111111111111111
2022-11-26T00:03:03.000Z,6.111111111111111
2022-11-26T00:03:33.000Z,6.111111111111111
2022-11-26T00:03:58.000Z,6.111111111111111
2022-11-26T00:04:24.000Z,6.111111111111111
2022-11-26T00:04:51.000Z,6.111111111111111
2022-11-26T00:05:17.000Z,6.111111111111111
2022-11-26T00:05:44.000Z,6.111111111111111
2022-11-26T00:06:12.000Z,6.111111111111111
2022-11-26T00:06:48.000Z,6.111111111111111
2022-11-26T00:07:18.000Z,6.111111111111111
2022-11-26T00:07:48.000Z,6.111111111111111
2022-11-26T00:08:23.000Z,6.111111111111111
2022-11-26T00:08:53.000Z,6.222222222222224
2022-11-26T00:09:28.000Z,6.222222222222224
2022-11-26T00:09:58.000Z,6.222222222222224
2022-11-26T00:10:28.000Z,6.111111111111111
2022-11-26T00:11:03.000Z,6.111111111111111
2022-11-26T00:11:33.000Z,6.111111111111111
2022-11-26T00:12:06.000Z,6.111111111111111
2022-11-26T00:12:38.000Z,6.111111111111111
2022-11-26T00:12:59.000Z,6.111111111111111
2022-11-26T00:13:37.000Z,6.111111111111111
2022-11-26T00:13:58.000Z,6.111111111111111
2022-11-26T00:14:28.000Z,6.111111111111111
2022-11-26T00:15:03.000Z,6.111111111111111
2022-11-26T00:15:33.000Z,6.111111111111111
2022-11-26T00:15:58.000Z,6.111111111111111
2022-11-26T00:16:23.000Z,6.111111111111111
2022-11-26T00:16:53.000Z,5.999999999999998
2022-11-26T00:17:28.000Z,5.999999999999998
2022-11-26T00:17:58.000Z,5.999999999999998
2022-11-26T00:18:28.000Z,5.999999999999998
2022-11-26T00:19:03.000Z,5.999999999999998
2022-11-26T00:19:33.000Z,6.111111111111111
2022-11-26T00:19:58.000Z,6.111111111111111
2022-11-26T00:20:24.000Z,6.111111111111111
2022-11-26T00:20:51.000Z,6.111111111111111
2022-11-26T00:21:17.000Z,6.111111111111111
2022-11-26T00:21:44.000Z,6.111111111111111
2022-11-26T00:22:07.000Z,5.999999999999998
2022-11-26T00:22:30.000Z,5.999999999999998
2022-11-26T00:23:03.000Z,5.999999999999998
2022-11-26T00:23:33.000Z,5.999999999999998
2022-11-26T00:23:58.000Z,5.999999999999998
2022-11-26T00:24:23.000Z,5.999999999999998
2022-11-26T00:24:53.000Z,5.999999999999998
2022-11-26T00:25:37.000Z,5.999999999999998
2022-11-26T00:25:58.000Z,5.999999999999998
2022-11-26T00:26:28.000Z,5.999999999999998
2022-11-26T00:27:03.000Z,5.999999999999998
2022-11-26T00:27:33.000Z,5.999999999999998
2022-11-26T00:27:58.000Z,5.999999999999998
2022-11-26T00:28:23.000Z,5.999999999999998
2022-11-26T00:28:53.000Z,5.999999999999998
2022-11-26T00:29:37.000Z,5.999999999999998
2022-11-26T00:30:07.000Z,5.999999999999998
2022-11-26T00:30:30.000Z,5.999999999999998
2022-11-26T00:30:58.000Z,5.999999999999998
2022-11-26T00:31:27.000Z,5.999999999999998
2022-11-26T00:31:57.000Z,5.999999999999998
2022-11-26T00:32:24.000Z,5.999999999999998
2022-11-26T00:32:51.000Z,5.999999999999998
2022-11-26T00:33:28.000Z,5.999999999999998
2022-11-26T00:34:07.000Z,5.999999999999998
2022-11-26T00:34:30.000Z,5.999999999999998
2022-11-26T00:34:58.000Z,5.999999999999998
2022-11-26T00:35:27.000Z,5.999999999999998
2022-11-26T00:35:48.000Z,5.888888888888889
2022-11-26T00:36:23.000Z,5.888888888888889
2022-11-26T00:36:53.000Z,5.888888888888889
2022-11-26T00:37:28.000Z,5.888888888888889
2022-11-26T00:37:58.000Z,5.888888888888889
2022-11-26T00:38:28.000Z,5.888888888888889
2022-11-26T00:39:03.000Z,5.888888888888889
2022-11-26T00:39:33.000Z,5.888888888888889
2022-11-26T00:40:06.000Z,5.888888888888889
2022-11-26T00:40:38.000Z,5.999999999999998
2022-11-26T00:40:59.000Z,6.111111111111111
2022-11-26T00:41:28.000Z,6.111111111111111
2022-11-26T00:42:07.000Z,6.111111111111111
2022-11-26T00:42:30.000Z,6.111111111111111
2022-11-26T00:42:58.000Z,5.999999999999998
2022-11-26T00:43:32.000Z,5.999999999999998
2022-11-26T00:43:58.000Z,5.999999999999998
2022-11-26T00:44:23.000Z,5.999999999999998
2022-11-26T00:44:53.000Z,5.999999999999998
2022-11-26T00:45:28.000Z,5.999999999999998
2022-11-26T00:45:58.000Z,5.999999999999998
2022-11-26T00:46:28.000Z,5.999999999999998
2022-11-26T00:47:03.000Z,5.999999999999998
2022-11-26T00:47:33.000Z,5.999999999999998
2022-11-26T00:47:58.000Z,5.999999999999998
2022-11-26T00:48:23.000Z,5.999999999999998
2022-11-26T00:48:53.000Z,5.999999999999998
2022-11-26T00:49:28.000Z,5.888888888888889
2022-11-26T00:49:58.000Z,5.888888888888889
2022-11-26T00:50:37.000Z,5.888888888888889
2022-11-26T00:51:04.000Z,5.999999999999998
2022-11-26T00:51:34.000Z,5.999999999999998
2022-11-26T00:51:58.000Z,5.888888888888889
2022-11-26T00:52:24.000Z,5.888888888888889
2022-11-26T00:52:51.000Z,5.999999999999998
2022-11-26T00:53:28.000Z,5.999999999999998
2022-11-26T00:54:07.000Z,5.999999999999998
2022-11-26T00:54:28.000Z,5.999999999999998
2022-11-26T00:55:03.000Z,5.999999999999998
2022-11-26T00:55:33.000Z,5.999999999999998
2022-11-26T00:56:06.000Z,5.999999999999998
2022-11-26T00:56:38.000Z,5.888888888888889
2022-11-26T00:56:59.000Z,5.888888888888889
2022-11-26T00:57:28.000Z,5.888888888888889
2022-11-26T00:57:58.000Z,5.888888888888889
2022-11-26T00:58:28.000Z,5.888888888888889
2022-11-26T00:59:03.000Z,5.999999999999998
2022-11-26T00:59:33.000Z,5.999999999999998
2022-11-26T01:00:06.000Z,5.999999999999998
2022-11-26T01:00:38.000Z,5.999999999999998
2022-11-26T01:01:01.000Z,5.999999999999998
2022-11-26T01:01:27.000Z,5.888888888888889
2022-11-26T01:01:58.000Z,5.777777777777777
2022-11-26T01:02:28.000Z,5.777777777777777
2022-11-26T01:03:03.000Z,5.777777777777777
2022-11-26T01:03:33.000Z,5.777777777777777
2022-11-26T01:03:58.000Z,5.777777777777777
2022-11-26T01:04:23.000Z,5.777777777777777
2022-11-26T01:04:53.000Z,5.777777777777777
2022-11-26T01:05:28.000Z,5.777777777777777
2022-11-26T01:05:58.000Z,5.888888888888889
2022-11-26T01:06:28.000Z,5.888888888888889
2022-11-26T01:07:03.000Z,5.888888888888889
2022-11-26T01:07:33.000Z,5.888888888888889
2022-11-26T01:08:07.000Z,5.777777777777777
2022-11-26T01:08:35.000Z,5.777777777777777
2022-11-26T01:09:02.000Z,5.777777777777777
2022-11-26T01:09:27.000Z,5.777777777777777
2022-11-26T01:09:55.000Z,5.777777777777777
2022-11-26T01:10:19.000Z,5.777777777777777
2022-11-26T01:10:44.000Z,5.777777777777777
2022-11-26T01:11:12.000Z,5.777777777777777
2022-11-26T01:11:35.000Z,5.777777777777777
2022-11-26T01:12:02.000Z,5.777777777777777
2022-11-26T01:12:27.000Z,5.777777777777777
2022-11-26T01:12:54.000Z,5.777777777777777
2022-11-26T01:13:28.000Z,5.777777777777777
2022-11-26T01:13:55.000Z,5.777777777777777
2022-11-26T01:14:11.000Z,5.777777777777777
2022-11-26T01:14:28.000Z,5.777777777777777
2022-11-26T01:15:03.000Z,5.777777777777777
2022-11-26T01:15:33.000Z,5.7222222222222205
2022-11-26T01:16:06.000Z,5.7222222222222205
2022-11-26T01:16:38.000Z,5.7222222222222205
2022-11-26T01:17:00.000Z,5.7222222222222205
2022-11-26T01:17:28.000Z,5.7222222222222205
2022-11-26T01:17:58.000Z,5.7222222222222205
2022-11-26T01:18:28.000Z,5.7222222222222205
2022-11-26T01:19:03.000Z,5.7222222222222205
2022-11-26T01:19:42.000Z,5.7222222222222205
2022-11-26T01:20:09.000Z,5.7222222222222205
2022-11-26T01:20:35.000Z,5.777777777777777
2022-11-26T01:21:02.000Z,5.777777777777777
2022-11-26T01:21:27.000Z,5.777777777777777
2022-11-26T01:21:55.000Z,5.7222222222222205
2022-11-26T01:22:19.000Z,5.7222222222222205
2022-11-26T01:22:43.000Z,5.7222222222222205
2022-11-26T01:23:18.000Z,5.7222222222222205
2022-11-26T01:23:48.000Z,5.7222222222222205
2022-11-26T01:24:23.000Z,5.7222222222222205
2022-11-26T01:24:53.000Z,5.7222222222222205
2022-11-26T01:25:28.000Z,5.7222222222222205
2022-11-26T01:25:58.000Z,5.611111111111112
2022-11-26T01:26:28.000Z,5.611111111111112
2022-11-26T01:27:03.000Z,5.611111111111112
2022-11-26T01:27:33.000Z,5.611111111111112
2022-11-26T01:28:06.000Z,5.7222222222222205
2022-11-26T01:28:38.000Z,5.7222222222222205
2022-11-26T01:29:01.000Z,5.7222222222222205
2022-11-26T01:29:28.000Z,5.7222222222222205
2022-11-26T01:29:55.000Z,5.7222222222222205
2022-11-26T01:30:12.000Z,5.7222222222222205
2022-11-26T01:30:48.000Z,5.7222222222222205
2022-11-26T01:31:19.000Z,5.7222222222222205
2022-11-26T01:31:53.000Z,5.7222222222222205
2022-11-26T01:32:23.000Z,5.7222222222222205
2022-11-26T01:32:53.000Z,5.7222222222222205
2022-11-26T01:33:28.000Z,5.7222222222222205
2022-11-26T01:33:58.000Z,5.611111111111112
2022-11-26T01:34:28.000Z,5.611111111111112
2022-11-26T01:35:03.000Z,5.611111111111112
2022-11-26T01:35:33.000Z,5.611111111111112
2022-11-26T01:35:58.000Z,5.611111111111112
2022-11-26T01:36:23.000Z,5.7222222222222205
2022-11-26T01:36:53.000Z,5.7222222222222205
2022-11-26T01:37:28.000Z,5.7222222222222205
2022-11-26T01:37:58.000Z,5.7222222222222205
2022-11-26T01:38:33.000Z,5.7222222222222205
2022-11-26T01:39:03.000Z,5.7222222222222205
2022-11-26T01:39:33.000Z,5.7222222222222205
2022-11-26T01:39:58.000Z,5.7222222222222205
2022-11-26T01:40:23.000Z,5.7222222222222205
2022-11-26T01:40:53.000Z,5.7222222222222205
2022-11-26T01:41:28.000Z,5.7222222222222205
2022-11-26T01:41:58.000Z,5.7222222222222205
2022-11-26T01:42:28.000Z,5.7222222222222205
2022-11-26T01:43:03.000Z,5.7222222222222205
2022-11-26T01:43:33.000Z,5.611111111111112
2022-11-26T01:44:06.000Z,5.611111111111112
2022-11-26T01:44:38.000Z,5.611111111111112
2022-11-26T01:45:02.000Z,5.611111111111112
2022-11-26T01:45:27.000Z,5.611111111111112
2022-11-26T01:45:55.000Z,5.611111111111112
2022-11-26T01:46:28.000Z,5.611111111111112
2022-11-26T01:47:12.000Z,5.611111111111112
2022-11-26T01:47:36.000Z,5.611111111111112
2022-11-26T01:48:02.000Z,5.611111111111112
2022-11-26T01:48:27.000Z,5.611111111111112
2022-11-26T01:48:54.000Z,5.611111111111112
2022-11-26T01:49:28.000Z,5.611111111111112
2022-11-26T01:49:55.000Z,5.611111111111112
2022-11-26T01:50:12.000Z,5.611111111111112
2022-11-26T01:50:43.000Z,5.611111111111112
2022-11-26T01:51:18.000Z,5.611111111111112
2022-11-26T01:51:48.000Z,5.499999999999999
2022-11-26T01:52:23.000Z,5.499999999999999
2022-11-26T01:52:53.000Z,5.499999999999999
2022-11-26T01:53:28.000Z,5.499999999999999
2022-11-26T01:53:58.000Z,5.499999999999999
2022-11-26T01:54:28.000Z,5.499999999999999
2022-11-26T01:55:03.000Z,5.499999999999999
2022-11-26T01:55:33.000Z,5.38888888888889
2022-11-26T01:55:58.000Z,5.38888888888889
2022-11-26T01:56:23.000Z,5.38888888888889
2022-11-26T01:56:51.000Z,5.499999999999999
2022-11-26T01:57:17.000Z,5.499999999999999
2022-11-26T01:57:44.000Z,5.499999999999999
2022-11-26T01:58:07.000Z,5.499999999999999
2022-11-26T01:58:30.000Z,5.611111111111112
2022-11-26T01:58:58.000Z,5.611111111111112
2022-11-26T01:59:15.000Z,5.611111111111112
2022-11-26T01:59:32.000Z,5.611111111111112
2022-11-26T02:00:06.000Z,5.499999999999999
2022-11-26T02:00:38.000Z,5.499999999999999
2022-11-26T02:00:59.000Z,5.499999999999999
2022-11-26T02:01:28.000Z,5.499999999999999
2022-11-26T02:01:58.000Z,5.499999999999999
2022-11-26T02:02:28.000Z,5.499999999999999
2022-11-26T02:03:03.000Z,5.499999999999999
2022-11-26T02:03:33.000Z,5.499999999999999
2022-11-26T02:04:06.000Z,5.611111111111112
2022-11-26T02:04:38.000Z,5.611111111111112
2022-11-26T02:04:59.000Z,5.611111111111112
2022-11-26T02:05:28.000Z,5.7222222222222205
2022-11-26T02:05:58.000Z,5.7222222222222205
2022-11-26T02:06:33.000Z,5.7222222222222205
2022-11-26T02:07:12.000Z,5.7222222222222205
2022-11-26T02:07:35.000Z,5.7222222222222205
2022-11-26T02:08:02.000Z,5.7222222222222205
2022-11-26T02:08:27.000Z,5.7222222222222205
2022-11-26T02:08:54.000Z,5.7222222222222205
2022-11-26T02:09:28.000Z,5.7222222222222205
2022-11-26T02:09:58.000Z,5.7222222222222205
2022-11-26T02:10:28.000Z,5.7222222222222205
2022-11-26T02:11:03.000Z,5.7222222222222205
2022-11-26T02:11:33.000Z,5.777777777777777
2022-11-26T02:11:58.000Z,5.777777777777777
2022-11-26T02:12:23.000Z,5.777777777777777
2022-11-26T02:12:53.000Z,5.777777777777777
2022-11-26T02:13:28.000Z,5.777777777777777
2022-11-26T02:13:58.000Z,5.777777777777777
2022-11-26T02:14:28.000Z,5.777777777777777
2022-11-26T02:15:03.000Z,5.7222222222222205
2022-11-26T02:15:42.000Z,5.7222222222222205
2022-11-26T02:16:09.000Z,5.7222222222222205
2022-11-26T02:16:35.000Z,5.7222222222222205
2022-11-26T02:17:02.000Z,5.7222222222222205
2022-11-26T02:17:27.000Z,5.7222222222222205
2022-11-26T02:17:55.000Z,5.777777777777777
2022-11-26T02:18:19.000Z,5.777777777777777
2022-11-26T02:18:43.000Z,5.777777777777777
2022-11-26T02:19:18.000Z,5.777777777777777
2022-11-26T02:19:48.000Z,5.777777777777777
2022-11-26T02:20:23.000Z,5.777777777777777
2022-11-26T02:20:53.000Z,5.777777777777777
2022-11-26T02:21:28.000Z,5.777777777777777
2022-11-26T02:21:58.000Z,5.777777777777777
2022-11-26T02:22:28.000Z,5.777777777777777
2022-11-26T02:23:03.000Z,5.777777777777777
2022-11-26T02:23:33.000Z,5.888888888888889
2022-11-26T02:24:08.000Z,5.888888888888889
2022-11-26T02:24:47.000Z,5.888888888888889
2022-11-26T02:25:17.000Z,5.888888888888889
2022-11-26T02:25:43.000Z,5.888888888888889
2022-11-26T02:26:04.000Z,5.999999999999998
2022-11-26T02:26:28.000Z,5.999999999999998
2022-11-26T02:27:03.000Z,5.999999999999998
2022-11-26T02:27:33.000Z,5.999999999999998
2022-11-26T02:27:58.000Z,5.999999999999998
2022-11-26T02:28:23.000Z,5.888888888888889
2022-11-26T02:28:53.000Z,5.888888888888889
2022-11-26T02:29:28.000Z,5.888888888888889
2022-11-26T02:29:58.000Z,5.888888888888889
2022-11-26T02:30:28.000Z,5.888888888888889
2022-11-26T02:31:03.000Z,5.888888888888889
2022-11-26T02:31:33.000Z,5.888888888888889
2022-11-26T02:31:58.000Z,5.888888888888889
2022-11-26T02:32:24.000Z,5.888888888888889
2022-11-26T02:32:51.000Z,5.888888888888889
2022-11-26T02:33:17.000Z,5.888888888888889
2022-11-26T02:33:44.000Z,5.888888888888889
2022-11-26T02:34:07.000Z,5.888888888888889
2022-11-26T02:34:30.000Z,5.888888888888889
2022-11-26T02:34:58.000Z,5.888888888888889
2022-11-26T02:35:27.000Z,5.888888888888889
2022-11-26T02:35:57.000Z,5.888888888888889
2022-11-26T02:36:24.000Z,5.888888888888889
2022-11-26T02:36:51.000Z,5.888888888888889
2022-11-26T02:37:17.000Z,5.888888888888889
2022-11-26T02:37:43.000Z,5.888888888888889
2022-11-26T02:38:11.000Z,5.888888888888889
2022-11-26T02:38:28.000Z,5.888888888888889
2022-11-26T02:39:03.000Z,5.888888888888889
2022-11-26T02:39:33.000Z,5.888888888888889
2022-11-26T02:39:58.000Z,5.888888888888889
2022-11-26T02:40:23.000Z,5.888888888888889
2022-11-26T02:40:53.000Z,5.888888888888889
2022-11-26T02:41:28.000Z,5.888888888888889
2022-11-26T02:41:58.000Z,5.777777777777777
2022-11-26T02:42:28.000Z,5.777777777777777
2022-11-26T02:43:03.000Z,5.777777777777777
2022-11-26T02:43:42.000Z,5.777777777777777
2022-11-26T02:44:09.000Z,5.777777777777777
2022-11-26T02:44:35.000Z,5.777777777777777
2022-11-26T02:45:02.000Z,5.777777777777777
2022-11-26T02:45:27.000Z,5.777777777777777
2022-11-26T02:45:55.000Z,5.777777777777777
2022-11-26T02:46:19.000Z,5.777777777777777
2022-11-26T02:46:44.000Z,5.777777777777777
2022-11-26T02:47:17.000Z,5.777777777777777
2022-11-26T02:47:48.000Z,5.777777777777777
2022-11-26T02:48:23.000Z,5.777777777777777
2022-11-26T02:48:53.000Z,5.777777777777777
2022-11-26T02:49:28.000Z,5.7222222222222205
2022-11-26T02:49:58.000Z,5.7222222222222205
2022-11-26T02:50:28.000Z,5.7222222222222205
2022-11-26T02:51:03.000Z,5.7222222222222205
2022-11-26T02:51:33.000Z,5.7222222222222205
2022-11-26T02:51:59.000Z,5.7222222222222205
2022-11-26T02:52:23.000Z,5.7222222222222205
2022-11-26T02:52:53.000Z,5.7222222222222205
2022-11-26T02:53:28.000Z,5.777777777777777
2022-11-26T02:54:07.000Z,5.777777777777777
2022-11-26T02:54:30.000Z,5.777777777777777
2022-11-26T02:54:58.000Z,5.777777777777777
2022-11-26T02:55:15.000Z,5.777777777777777
2022-11-26T02:55:32.000Z,5.7222222222222205
2022-11-26T02:55:58.000Z,5.7222222222222205
2022-11-26T02:56:23.000Z,5.7222222222222205
2022-11-26T02:56:53.000Z,5.7222222222222205
2022-11-26T02:57:28.000Z,5.7222222222222205
2022-11-26T02:57:58.000Z,5.7222222222222205
2022-11-26T02:58:28.000Z,5.777777777777777
2022-11-26T02:59:03.000Z,5.777777777777777
2022-11-26T02:59:34.000Z,5.777777777777777
2022-11-26T03:00:06.000Z,5.777777777777777
2022-11-26T03:00:38.000Z,5.777777777777777
2022-11-26T03:00:59.000Z,5.777777777777777
2022-11-26T03:01:28.000Z,5.777777777777777
2022-11-26T03:01:58.000Z,5.777777777777777
2022-11-26T03:02:37.000Z,5.7222222222222205
2022-11-26T03:03:04.000Z,5.7222222222222205
2022-11-26T03:03:35.000Z,5.7222222222222205
2022-11-26T03:03:58.000Z,5.7222222222222205
2022-11-26T03:04:24.000Z,5.7222222222222205
2022-11-26T03:04:51.000Z,5.7222222222222205
2022-11-26T03:05:17.000Z,5.7222222222222205
2022-11-26T03:05:43.000Z,5.7222222222222205
2022-11-26T03:06:11.000Z,5.7222222222222205
2022-11-26T03:06:28.000Z,5.7222222222222205
2022-11-26T03:07:03.000Z,5.7222222222222205
2022-11-26T03:07:33.000Z,5.7222222222222205
2022-11-26T03:08:06.000Z,5.7222222222222205
2022-11-26T03:08:38.000Z,5.7222222222222205
2022-11-26T03:08:59.000Z,5.7222222222222205
2022-11-26T03:09:28.000Z,5.7222222222222205
2022-11-26T03:09:58.000Z,5.7222222222222205
2022-11-26T03:10:28.000Z,5.7222222222222205
2022-11-26T03:11:03.000Z,5.7222222222222205
2022-11-26T03:11:33.000Z,5.7222222222222205
2022-11-26T03:11:58.000Z,5.7222222222222205
2022-11-26T03:12:23.000Z,5.7222222222222205
2022-11-26T03:12:53.000Z,5.7222222222222205
2022-11-26T03:13:28.000Z,5.7222222222222205
2022-11-26T03:13:58.000Z,5.7222222222222205
2022-11-26T03:14:28.000Z,5.611111111111112
2022-11-26T03:15:03.000Z,5.611111111111112
2022-11-26T03:15:33.000Z,5.611111111111112
2022-11-26T03:15:58.000Z,5.611111111111112
2022-11-26T03:16:23.000Z,5.611111111111112
2022-11-26T03:16:53.000Z,5.611111111111112
2022-11-26T03:17:28.000Z,5.7222222222222205
2022-11-26T03:17:58.000Z,5.7222222222222205
2022-11-26T03:18:37.000Z,5.611111111111112
2022-11-26T03:19:03.000Z,5.611111111111112
2022-11-26T03:19:33.000Z,5.611111111111112
2022-11-26T03:19:58.000Z,5.611111111111112
2022-11-26T03:20:23.000Z,5.611111111111112
2022-11-26T03:20:53.000Z,5.611111111111112
2022-11-26T03:21:28.000Z,5.611111111111112
2022-11-26T03:21:58.000Z,5.611111111111112
2022-11-26T03:22:28.000Z,5.611111111111112
2022-11-26T03:23:03.000Z,5.611111111111112
2022-11-26T03:23:33.000Z,5.611111111111112
2022-11-26T03:24:06.000Z,5.611111111111112
2022-11-26T03:24:38.000Z,5.611111111111112
2022-11-26T03:25:00.000Z,5.611111111111112
2022-11-26T03:25:27.000Z,5.611111111111112
2022-11-26T03:25:55.000Z,5.611111111111112
2022-11-26T03:26:11.000Z,5.611111111111112
2022-11-26T03:26:28.000Z,5.611111111111112
2022-11-26T03:27:03.000Z,5.611111111111112
2022-11-26T03:27:33.000Z,5.499999999999999
2022-11-26T03:27:58.000Z,5.499999999999999
2022-11-26T03:28:23.000Z,5.611111111111112
2022-11-26T03:28:53.000Z,5.499999999999999
2022-11-26T03:29:28.000Z,5.499999999999999
2022-11-26T03:29:58.000Z,5.499999999999999
2022-11-26T03:30:28.000Z,5.499999999999999
2022-11-26T03:31:03.000Z,5.499999999999999
2022-11-26T03:31:33.000Z,5.499999999999999
2022-11-26T03:31:58.000Z,5.499999999999999
2022-11-26T03:32:24.000Z,5.499999999999999
2022-11-26T03:32:50.000Z,5.499999999999999
2022-11-26T03:33:17.000Z,5.499999999999999
2022-11-26T03:33:43.000Z,5.499999999999999
2022-11-26T03:34:11.000Z,5.38888888888889
2022-11-26T03:34:28.000Z,5.38888888888889
2022-11-26T03:35:03.000Z,5.38888888888889
2022-11-26T03:35:33.000Z,5.38888888888889
2022-11-26T03:35:58.000Z,5.38888888888889
2022-11-26T03:36:23.000Z,5.38888888888889
2022-11-26T03:36:53.000Z,5.499999999999999
2022-11-26T03:37:28.000Z,5.499999999999999
2022-11-26T03:37:58.000Z,5.499999999999999
2022-11-26T03:38:28.000Z,5.499999999999999
2022-11-26T03:39:03.000Z,5.499999999999999
2022-11-26T03:39:33.000Z,5.499999999999999
2022-11-26T03:40:07.000Z,5.499999999999999
2022-11-26T03:40:35.000Z,5.499999999999999
2022-11-26T03:41:02.000Z,5.499999999999999
2022-11-26T03:41:27.000Z,5.38888888888889
2022-11-26T03:41:55.000Z,5.38888888888889
2022-11-26T03:42:19.000Z,5.38888888888889
2022-11-26T03:42:44.000Z,5.277777777777778
2022-11-26T03:43:18.000Z,5.277777777777778
2022-11-26T03:43:48.000Z,5.277777777777778
2022-11-26T03:44:23.000Z,5.222222222222221
2022-11-26T03:44:53.000Z,5.222222222222221
2022-11-26T03:45:28.000Z,5.222222222222221
2022-11-26T03:45:58.000Z,5.222222222222221
2022-11-26T03:46:29.000Z,5.222222222222221
2022-11-26T03:47:03.000Z,5.222222222222221
2022-11-26T03:47:33.000Z,5.222222222222221
2022-11-26T03:47:58.000Z,5.222222222222221
2022-11-26T03:48:23.000Z,5.222222222222221
2022-11-26T03:48:53.000Z,5.222222222222221
2022-11-26T03:49:27.000Z,5.222222222222221
2022-11-26T03:49:55.000Z,5.222222222222221
2022-11-26T03:50:19.000Z,5.222222222222221
2022-11-26T03:50:44.000Z,5.1111111111111125
2022-11-26T03:51:12.000Z,5.1111111111111125
2022-11-26T03:51:35.000Z,5.0
2022-11-26T03:52:02.000Z,5.0
2022-11-26T03:52:19.000Z,5.0
2022-11-26T03:52:53.000Z,5.0
2022-11-26T03:53:28.000Z,5.0
2022-11-26T03:53:58.000Z,5.0
2022-11-26T03:54:28.000Z,5.0
2022-11-26T03:55:03.000Z,5.0
2022-11-26T03:55:33.000Z,4.8888888888888875
2022-11-26T03:56:06.000Z,4.8888888888888875
2022-11-26T03:56:38.000Z,4.777777777777779
2022-11-26T03:56:59.000Z,4.777777777777779
2022-11-26T03:57:28.000Z,4.777777777777779
2022-11-26T03:57:58.000Z,4.722222222222222
2022-11-26T03:58:28.000Z,4.722222222222222
2022-11-26T03:59:03.000Z,4.61111111111111
2022-11-26T03:59:33.000Z,4.61111111111111
2022-11-26T04:00:08.000Z,4.61111111111111
2022-11-26T04:00:38.000Z,4.500000000000001
2022-11-26T04:00:59.000Z,4.500000000000001
2022-11-26T04:01:28.000Z,4.500000000000001
2022-11-26T04:01:58.000Z,4.500000000000001
2022-11-26T04:02:28.000Z,4.500000000000001
2022-11-26T04:03:03.000Z,4.500000000000001
2022-11-26T04:03:33.000Z,4.500000000000001
2022-11-26T04:03:58.000Z,4.500000000000001
2022-11-26T04:04:23.000Z,4.500000000000001
2022-11-26T04:04:53.000Z,4.61111111111111
2022-11-26T04:05:28.000Z,4.61111111111111
2022-11-26T04:05:58.000Z,4.61111111111111
2022-11-26T04:06:28.000Z,4.61111111111111
2022-11-26T04:07:03.000Z,4.61111111111111
2022-11-26T04:07:33.000Z,4.61111111111111
2022-11-26T04:07:58.000Z,4.61111111111111
2022-11-26T04:08:23.000Z,4.61111111111111
2022-11-26T04:08:53.000Z,4.61111111111111
2022-11-26T04:09:28.000Z,4.61111111111111
2022-11-26T04:09:58.000Z,4.61111111111111
2022-11-26T04:10:28.000Z,4.61111111111111
2022-11-26T04:11:03.000Z,4.61111111111111
2022-11-26T04:11:33.000Z,4.61111111111111
2022-11-26T04:11:58.000Z,4.61111111111111
2022-11-26T04:12:24.000Z,4.61111111111111
2022-11-26T04:12:51.000Z,4.61111111111111
2022-11-26T04:13:17.000Z,4.61111111111111
2022-11-26T04:13:44.000Z,4.722222222222222
2022-11-26T04:14:07.000Z,4.722222222222222
2022-11-26T04:14:30.000Z,4.722222222222222
2022-11-26T04:14:58.000Z,4.722222222222222
2022-11-26T04:15:27.000Z,4.61111111111111
2022-11-26T04:15:57.000Z,4.61111111111111
2022-11-26T04:16:24.000Z,4.61111111111111
2022-11-26T04:16:51.000Z,4.61111111111111
2022-11-26T04:17:28.000Z,4.61111111111111
2022-11-26T04:18:07.000Z,4.61111111111111
2022-11-26T04:18:30.000Z,4.61111111111111
2022-11-26T04:18:58.000Z,4.61111111111111
2022-11-26T04:19:27.000Z,4.500000000000001
2022-11-26T04:19:57.000Z,4.500000000000001
2022-11-26T04:20:24.000Z,4.500000000000001
2022-11-26T04:20:53.000Z,4.500000000000001
2022-11-26T04:21:28.000Z,4.500000000000001
2022-11-26T04:21:58.000Z,4.388888888888888
2022-11-26T04:22:28.000Z,4.388888888888888
2022-11-26T04:23:03.000Z,4.388888888888888
2022-11-26T04:23:33.000Z,4.2777777777777795
2022-11-26T04:23:58.000Z,4.2777777777777795
2022-11-26T04:24:23.000Z,4.2777777777777795
2022-11-26T04:24:53.000Z,4.222222222222223
2022-11-26T04:25:28.000Z,4.222222222222223
2022-11-26T04:25:58.000Z,4.222222222222223
2022-11-26T04:26:28.000Z,4.222222222222223
2022-11-26T04:27:03.000Z,4.222222222222223
2022-11-26T04:27:31.000Z,4.222222222222223
2022-11-26T04:27:57.000Z,4.222222222222223
2022-11-26T04:28:24.000Z,4.222222222222223
2022-11-26T04:28:51.000Z,4.388888888888888
2022-11-26T04:29:17.000Z,4.388888888888888
2022-11-26T04:29:44.000Z,4.500000000000001
2022-11-26T04:30:11.000Z,4.500000000000001
2022-11-26T04:30:43.000Z,4.500000000000001
2022-11-26T04:31:17.000Z,4.500000000000001
2022-11-26T04:31:48.000Z,4.500000000000001
2022-11-26T04:32:23.000Z,4.500000000000001